Time;durP1;ratioP1;P1;durP2;ratioP2;P2;SDS_P1;SDS_P2;PMS_P1;PMS_P2;Temp;Humidity;BMP_temperature;BMP_pressure;BME280_temperature;BME280_humidity;BME280_pressure;Samples;Min_cycle;Max_cycle;Signal;HPM_P1;HPM_P2
2022/07/04 00:00:39;;;;;;;2.37;1.37;;;24.10;54.00;;;;;;5057794;28;20190;-11
2022/07/04 00:03:05;;;;;;;1.60;1.40;;;24.00;54.30;;;;;;5056742;28;20237;-11
2022/07/04 00:05:31;;;;;;;1.33;1.20;;;24.00;55.30;;;;;;5074409;28;20232;-11
2022/07/04 00:07:56;;;;;;;2.20;1.20;;;24.10;55.60;;;;;;5075205;28;20524;-11
2022/07/04 00:10:23;;;;;;;1.97;1.20;;;24.10;54.90;;;;;;5074277;28;20592;-11
2022/07/04 00:12:49;;;;;;;1.53;1.17;;;24.30;55.40;;;;;;5073802;28;20206;-11
2022/07/04 00:15:15;;;;;;;1.70;1.30;;;24.20;54.80;;;;;;5057465;28;20203;-11
2022/07/04 00:17:41;;;;;;;1.80;1.20;;;24.10;55.00;;;;;;5056510;28;20336;-11
2022/07/04 00:20:08;;;;;;;2.27;1.37;;;24.20;54.50;;;;;;5075810;28;20313;-11
2022/07/04 00:22:34;;;;;;;1.40;1.30;;;24.30;55.30;;;;;;5074246;28;20254;-11
2022/07/04 00:25:00;;;;;;;1.93;1.03;;;24.30;54.50;;;;;;5074587;28;20316;-11
2022/07/04 00:27:26;;;;;;;1.73;1.20;;;24.30;55.00;;;;;;5074769;28;20551;-11
2022/07/04 00:29:52;;;;;;;2.50;1.40;;;24.30;54.60;;;;;;5056398;28;20180;-11
2022/07/04 00:32:17;;;;;;;1.47;1.20;;;24.40;54.80;;;;;;5056466;28;20247;-11
2022/07/04 00:34:43;;;;;;;1.53;1.27;;;24.40;54.80;;;;;;5073669;28;20175;-11
2022/07/04 00:37:09;;;;;;;1.67;1.40;;;24.40;54.80;;;;;;5075235;28;20532;-11
2022/07/04 00:39:35;;;;;;;2.17;1.30;;;24.30;54.60;;;;;;5055513;28;20171;-11
2022/07/04 00:42:01;;;;;;;1.40;1.20;;;24.30;54.50;;;;;;5057158;28;20178;-11
2022/07/04 00:44:27;;;;;;;1.43;1.33;;;24.30;54.80;;;;;;5074050;28;20164;-12
2022/07/04 00:46:52;;;;;;;1.33;1.20;;;24.30;54.70;;;;;;5074861;28;20575;-11
2022/07/04 00:49:18;;;;;;;1.83;1.40;;;24.10;53.70;;;;;;5056957;28;20211;-11
2022/07/04 00:51:45;;;;;;;1.80;1.20;;;23.90;54.40;;;;;;5074442;28;20568;-11
2022/07/04 00:54:18;;;;;;;1.30;1.20;;;23.80;55.20;;;;;;5074465;28;20558;-11
2022/07/04 00:56:45;;;;;;;1.37;1.20;;;23.80;55.20;;;;;;5059917;28;20199;-11
2022/07/04 00:59:11;;;;;;;1.97;1.20;;;24.00;55.40;;;;;;5061336;28;20569;-11
2022/07/04 01:01:38;;;;;;;1.40;1.10;;;24.00;55.10;;;;;;5078894;28;20233;-11
2022/07/04 01:04:05;;;;;;;1.93;1.50;;;23.90;54.10;;;;;;5078617;28;20668;-11
2022/07/04 01:06:32;;;;;;;3.97;1.30;;;23.80;55.00;;;;;;5061216;28;20193;-11
2022/07/04 01:08:58;;;;;;;2.67;1.30;;;23.80;54.60;;;;;;5078764;28;20250;-11
2022/07/04 01:11:24;;;;;;;1.27;1.17;;;23.60;54.60;;;;;;5078400;28;20172;-11
2022/07/04 01:13:50;;;;;;;1.93;1.40;;;23.30;55.40;;;;;;5060701;28;20205;-11
2022/07/04 01:16:15;;;;;;;2.07;1.40;;;23.50;55.60;;;;;;5061064;28;20242;-12
2022/07/04 01:18:41;;;;;;;1.80;1.30;;;23.20;55.10;;;;;;5078412;28;20174;-11
2022/07/04 01:21:08;;;;;;;1.40;1.30;;;23.10;55.60;;;;;;5061223;28;20167;-10
2022/07/04 01:23:41;;;;;;;2.07;1.50;;;23.10;55.70;;;;;;5060944;28;20206;-11
2022/07/04 01:26:07;;;;;;;2.03;1.40;;;23.10;55.80;;;;;;5061246;28;20515;-11
2022/07/04 01:28:33;;;;;;;3.13;1.50;;;23.10;55.70;;;;;;5060705;28;20167;-11
2022/07/04 01:30:59;;;;;;;1.50;1.40;;;23.10;55.80;;;;;;5060241;28;20171;-11
2022/07/04 01:33:25;;;;;;;2.50;1.40;;;23.00;55.90;;;;;;5060300;28;20229;-11
2022/07/04 01:35:50;;;;;;;2.27;1.50;;;23.00;56.20;;;;;;5078150;28;20546;-11
2022/07/04 01:38:16;;;;;;;2.07;1.43;;;23.00;56.30;;;;;;5062684;28;20706;-11
2022/07/04 01:40:42;;;;;;;2.17;1.40;;;23.10;56.10;;;;;;5079975;28;20611;-11
2022/07/04 01:43:08;;;;;;;1.53;1.30;;;23.10;56.40;;;;;;5080321;28;20163;-11
2022/07/04 01:45:37;;;;;;;2.00;1.43;;;23.20;56.40;;;;;;5080081;28;20159;-11
2022/07/04 01:48:04;;;;;;;2.50;1.50;;;23.00;55.70;;;;;;5079792;28;20176;-11
2022/07/04 01:50:30;;;;;;;2.30;1.40;;;22.90;56.20;;;;;;5062709;28;20171;-11
2022/07/04 01:52:56;;;;;;;1.53;1.40;;;23.00;57.00;;;;;;5062636;28;20172;-11
2022/07/04 01:55:21;;;;;;;1.63;1.40;;;23.00;56.10;;;;;;5062048;28;20661;-10
2022/07/04 01:57:47;;;;;;;2.37;1.60;;;22.90;56.70;;;;;;5062175;28;20483;-11
2022/07/04 02:02:57;;;;;;;1.80;1.50;;;23.20;56.30;;;;;;5079437;28;20594;-11
2022/07/04 02:05:28;;;;;;;1.80;1.40;;;23.00;55.80;;;;;;5079042;28;20164;-11
2022/07/04 02:07:54;;;;;;;1.57;1.40;;;23.10;56.70;;;;;;5078692;28;20180;-11
2022/07/04 02:10:20;;;;;;;2.90;1.50;;;23.00;56.30;;;;;;5061612;28;20566;-11
2022/07/04 02:13:01;;;;;;;2.27;1.73;;;22.90;56.20;;;;;;5079473;28;20257;-11
2022/07/04 02:15:29;;;;;;;2.43;1.70;;;22.90;56.50;;;;;;5061802;28;20178;-11
2022/07/04 02:17:55;;;;;;;2.60;1.50;;;22.90;56.20;;;;;;5077366;28;20539;-11
2022/07/04 02:20:20;;;;;;;1.40;1.30;;;22.90;56.50;;;;;;5059018;28;20564;-11
2022/07/04 02:22:47;;;;;;;2.40;1.43;;;23.00;56.80;;;;;;5059526;28;20168;-11
2022/07/04 02:25:17;;;;;;;1.77;1.50;;;23.10;56.50;;;;;;5076906;28;20326;-11
2022/07/04 02:27:43;;;;;;;2.87;1.40;;;23.20;55.80;;;;;;5077077;28;20167;-11
2022/07/04 02:30:09;;;;;;;2.70;1.40;;;23.00;55.90;;;;;;5059566;28;20167;-11
2022/07/04 02:32:35;;;;;;;2.27;1.60;;;22.70;56.50;;;;;;5076501;28;20193;-11
2022/07/04 02:35:02;;;;;;;2.17;1.60;;;22.70;56.80;;;;;;5077435;28;20164;-11
2022/07/04 02:37:27;;;;;;;1.40;1.30;;;22.80;56.90;;;;;;5077282;28;20195;-11
2022/07/04 02:39:53;;;;;;;1.50;1.40;;;22.70;56.90;;;;;;5059263;28;20111;-11
2022/07/04 02:42:22;;;;;;;2.80;1.50;;;22.60;57.50;;;;;;5076518;28;20183;-11
2022/07/04 02:44:48;;;;;;;3.10;1.40;;;22.50;57.20;;;;;;5076720;28;20178;-11
2022/07/04 02:47:15;;;;;;;3.33;1.70;;;22.50;57.60;;;;;;5059342;28;20271;-11
2022/07/04 02:49:42;;;;;;;3.30;1.47;;;22.50;57.60;;;;;;5058738;28;20278;-11
2022/07/04 02:52:08;;;;;;;2.50;1.40;;;22.50;57.50;;;;;;5077027;28;20182;-11
2022/07/04 02:54:34;;;;;;;;;;;22.50;57.60;;;;;;5059388;28;20244;-11
2022/07/04 02:56:59;;;;;;;;;;;22.50;57.60;;;;;;5076654;28;19912;-11
2022/07/04 02:59:25;;;;;;;;;;;22.40;57.70;;;;;;5059253;28;19919;-11
2022/07/04 03:01:50;;;;;;;;;;;22.40;57.80;;;;;;5058239;28;19912;-11
2022/07/04 03:04:16;;;;;;;;;;;22.40;57.70;;;;;;5075064;28;19916;-11
2022/07/04 03:06:42;;;;;;;;;;;22.30;57.80;;;;;;5074663;28;20191;-11
2022/07/04 03:09:11;;;;;;;;;;;22.20;58.30;;;;;;5074945;28;20278;-11
2022/07/04 03:11:36;;;;;;;;;;;22.20;58.70;;;;;;5057164;28;19965;-11
2022/07/04 03:14:02;;;;;;;;;;;22.30;58.50;;;;;;5075303;28;19912;-11
2022/07/04 03:16:28;;;;;;;;;;;22.40;58.40;;;;;;5074400;28;19920;-11
2022/07/04 03:18:53;;;;;;;;;;;22.40;58.30;;;;;;5073784;28;20029;-11
2022/07/04 03:21:19;;;;;;;;;;;22.60;58.00;;;;;;5056855;28;20258;-11
2022/07/04 03:23:57;;;;;;;;;;;22.70;57.50;;;;;;5057171;28;19904;-11
2022/07/04 03:26:26;;;;;;;;;;;22.60;57.00;;;;;;5056904;28;20214;-10
2022/07/04 03:28:52;;;;;;;;;;;22.50;57.60;;;;;;5075342;28;19908;-11
2022/07/04 03:31:17;;;;;;;;;;;22.30;58.00;;;;;;5075007;28;20173;-11
2022/07/04 03:33:43;;;;;;;;;;;22.10;58.80;;;;;;5074685;28;20262;-11
2022/07/04 03:36:09;;;;;;;;;;;22.10;58.80;;;;;;5057251;28;19908;-11
2022/07/04 03:38:34;;;;;;;;;;;22.10;58.70;;;;;;5075206;28;19905;-12
2022/07/04 03:41:00;;;;;;;;;;;22.10;58.80;;;;;;5057225;28;19935;-12
2022/07/04 03:43:26;;;;;;;2.87;1.60;;;22.10;58.90;;;;;;5074588;28;20534;-11
2022/07/04 03:45:52;;;;;;;1.50;1.40;;;21.90;59.50;;;;;;5055550;28;20269;-11
2022/07/04 03:48:17;;;;;;;1.87;1.40;;;21.70;59.80;;;;;;5073930;28;20420;-11
2022/07/04 03:50:43;;;;;;;2.20;1.50;;;21.70;60.70;;;;;;5074239;28;20555;-10
2022/07/04 03:53:08;;;;;;;4.33;1.60;;;21.70;60.60;;;;;;5073698;28;20235;-11
2022/07/04 03:55:34;;;;;;;3.43;1.87;;;21.90;60.00;;;;;;5055890;28;20178;-11
2022/07/04 03:58:00;;;;;;;3.10;1.70;;;21.90;59.80;;;;;;5075080;28;20589;-10
2022/07/04 04:00:26;;;;;;;1.87;1.50;;;21.90;59.80;;;;;;5056348;28;20374;-11
2022/07/04 04:02:52;;;;;;;4.00;1.70;;;22.00;59.80;;;;;;5056624;28;20665;-11
2022/07/04 04:05:27;;;;;;;2.77;1.80;;;22.00;59.70;;;;;;5056680;28;20411;-11
2022/07/04 04:07:58;;;;;;;4.63;1.70;;;22.00;59.70;;;;;;5056891;28;20177;-10
2022/07/04 04:10:26;;;;;;;1.73;1.40;;;21.90;60.00;;;;;;5074537;28;20445;-11
2022/07/04 04:12:52;;;;;;;3.27;1.63;;;21.90;60.20;;;;;;5056935;28;20590;-11
2022/07/04 04:15:18;;;;;;;3.30;1.53;;;22.00;60.30;;;;;;5073531;28;20209;-10
2022/07/04 04:17:43;;;;;;;2.70;1.40;;;22.10;59.80;;;;;;5073695;28;20212;-10
2022/07/04 04:20:10;;;;;;;1.73;1.60;;;22.10;59.50;;;;;;5073933;28;20177;-11
2022/07/04 04:22:36;;;;;;;3.10;1.60;;;22.20;59.30;;;;;;5073232;28;20174;-11
2022/07/04 04:25:01;;;;;;;3.83;1.80;;;22.30;59.20;;;;;;5072618;28;20255;-11
2022/07/04 04:27:27;;;;;;;2.77;1.70;;;22.30;59.20;;;;;;5072149;28;20209;-11
2022/07/04 04:29:53;;;;;;;1.87;1.40;;;22.40;59.00;;;;;;5074182;28;20454;-11
2022/07/04 04:32:19;;;;;;;2.43;1.57;;;22.50;59.00;;;;;;5075926;28;20187;-11
2022/07/04 04:34:45;;;;;;;2.20;1.50;;;22.50;58.80;;;;;;5059360;28;20343;-10
2022/07/04 04:37:12;;;;;;;2.13;1.43;;;22.50;58.80;;;;;;5058925;28;20206;-11
2022/07/04 04:39:39;;;;;;;3.10;1.60;;;22.60;58.60;;;;;;5076247;28;20166;-11
2022/07/04 04:42:04;;;;;;;2.73;1.70;;;22.60;58.90;;;;;;5076856;28;20422;-11
2022/07/04 04:44:30;;;;;;;1.87;1.30;;;22.70;58.50;;;;;;5075584;28;20579;-11
2022/07/04 04:46:56;;;;;;;2.13;1.60;;;22.70;58.40;;;;;;5076275;28;20216;-11
2022/07/04 04:49:25;;;;;;;2.37;1.40;;;22.80;58.30;;;;;;5077148;28;20274;-11
2022/07/04 04:51:50;;;;;;;2.13;1.70;;;22.80;58.00;;;;;;5057266;28;20176;-11
2022/07/04 04:54:16;;;;;;;3.70;1.80;;;22.90;58.00;;;;;;5075752;28;20574;-11
2022/07/04 04:56:42;;;;;;;1.53;1.43;;;22.90;57.80;;;;;;5075975;28;20202;-11
2022/07/04 04:59:08;;;;;;;2.43;1.60;;;22.90;57.60;;;;;;5075749;28;20464;-11
2022/07/04 05:01:34;;;;;;;3.13;1.70;;;22.90;57.70;;;;;;5075871;28;20171;-11
2022/07/04 05:04:00;;;;;;;1.97;1.50;;;23.00;57.70;;;;;;5057467;28;20239;-10
2022/07/04 05:06:26;;;;;;;2.47;1.63;;;23.00;57.60;;;;;;5074527;28;20183;-11
2022/07/04 05:08:52;;;;;;;3.30;1.73;;;23.10;57.30;;;;;;5058123;28;20206;-11
2022/07/04 05:11:17;;;;;;;2.60;1.50;;;23.20;57.10;;;;;;5057606;28;20338;-11
2022/07/04 05:13:43;;;;;;;2.83;1.63;;;23.30;56.90;;;;;;5075728;28;20220;-10
2022/07/04 05:16:09;;;;;;;1.83;1.60;;;23.30;57.10;;;;;;5057465;28;20588;-10
2022/07/04 05:18:34;;;;;;;1.90;1.63;;;23.40;57.00;;;;;;5058553;28;20174;-10
2022/07/04 05:21:00;;;;;;;3.93;1.60;;;23.40;56.80;;;;;;5074437;28;20658;-10
2022/07/04 05:23:27;;;;;;;1.60;1.50;;;23.50;56.60;;;;;;5076000;28;20504;-11
2022/07/04 05:25:52;;;;;;;1.53;1.40;;;23.50;56.80;;;;;;5057138;28;20592;-11
2022/07/04 05:28:18;;;;;;;3.27;2.20;;;23.60;56.50;;;;;;5074781;28;20668;-10
2022/07/04 05:30:44;;;;;;;2.40;1.50;;;23.70;56.80;;;;;;5074051;28;20190;-11
2022/07/04 05:33:11;;;;;;;3.27;1.93;;;23.70;56.80;;;;;;5074047;28;20256;-11
2022/07/04 05:35:37;;;;;;;2.43;1.87;;;23.80;57.90;;;;;;5057070;28;20205;-10
2022/07/04 05:38:03;;;;;;;1.93;1.50;;;23.80;57.90;;;;;;5057828;28;20175;-10
2022/07/04 05:40:29;;;;;;;2.27;1.60;;;23.90;56.80;;;;;;5073511;28;20168;-10
2022/07/04 05:42:56;;;;;;;4.10;1.97;;;24.00;57.00;;;;;;5055798;28;20193;-10
2022/07/04 05:45:22;;;;;;;2.77;1.80;;;24.10;57.20;;;;;;5073949;28;20614;-10
2022/07/04 05:47:48;;;;;;;2.10;1.50;;;24.10;56.10;;;;;;5073271;28;20191;-10
2022/07/04 05:50:13;;;;;;;1.60;1.40;;;24.30;55.20;;;;;;5055357;28;20167;-11
2022/07/04 05:52:39;;;;;;;1.60;1.50;;;24.40;55.30;;;;;;5073228;28;20176;-11
2022/07/04 05:55:07;;;;;;;3.07;1.80;;;24.50;55.00;;;;;;5055023;28;20269;-11
2022/07/04 05:57:33;;;;;;;3.57;1.70;;;24.60;54.60;;;;;;5072741;28;20301;-10
2022/07/04 05:59:58;;;;;;;2.43;1.60;;;24.60;54.30;;;;;;5054014;28;20168;-10
2022/07/04 06:02:24;;;;;;;2.23;1.63;;;24.80;54.20;;;;;;5055136;28;20168;-11
2022/07/04 06:04:50;;;;;;;2.13;1.60;;;24.80;54.00;;;;;;5071369;28;20480;-11
2022/07/04 06:07:17;;;;;;;2.53;1.60;;;24.90;53.80;;;;;;5053912;28;20178;-10
2022/07/04 06:09:43;;;;;;;2.43;1.50;;;25.00;53.80;;;;;;5073946;28;20347;-11
2022/07/04 06:12:09;;;;;;;1.60;1.40;;;25.10;53.60;;;;;;5054778;28;20175;-10
2022/07/04 06:14:35;;;;;;;1.70;1.50;;;25.20;53.90;;;;;;5055157;28;20237;-11
2022/07/04 06:17:01;;;;;;;1.80;1.70;;;25.30;53.70;;;;;;5070489;28;20600;-10
2022/07/04 06:19:27;;;;;;;2.13;1.60;;;25.40;53.60;;;;;;5071161;28;20217;-11
2022/07/04 06:21:53;;;;;;;2.73;1.77;;;25.60;53.70;;;;;;5072444;28;20172;-11
2022/07/04 06:24:19;;;;;;;1.97;1.80;;;25.70;53.40;;;;;;5052880;28;20599;-11
2022/07/04 06:26:44;;;;;;;3.53;1.60;;;25.80;53.10;;;;;;5071176;28;20171;-11
2022/07/04 06:29:10;;;;;;;3.90;1.67;;;25.90;52.80;;;;;;5054329;28;20176;-11
2022/07/04 06:31:36;;;;;;;3.43;1.80;;;26.00;52.60;;;;;;5072997;28;20167;-11
2022/07/04 06:36:46;;;;;;;2.07;1.70;;;26.20;52.50;;;;;;5071636;28;20206;-11
2022/07/04 06:39:12;;;;;;;2.87;1.80;;;26.40;52.20;;;;;;5070272;28;20426;-11
2022/07/04 06:41:37;;;;;;;3.90;1.83;;;26.40;52.40;;;;;;5070387;28;20374;-11
2022/07/04 06:44:04;;;;;;;3.40;1.70;;;26.60;52.10;;;;;;5053914;28;20325;-11
2022/07/04 06:46:30;;;;;;;2.87;1.60;;;26.70;52.00;;;;;;5071168;28;20462;-11
2022/07/04 06:48:56;;;;;;;2.27;1.80;;;26.70;52.00;;;;;;5070319;28;20568;-11
2022/07/04 06:51:23;;;;;;;2.23;1.60;;;26.80;52.00;;;;;;5052344;28;20675;-11
2022/07/04 06:53:49;;;;;;;2.90;2.00;;;26.90;51.90;;;;;;5052224;28;20496;-10
2022/07/04 06:56:15;;;;;;;2.87;1.80;;;27.00;51.80;;;;;;5053775;28;20203;-11
2022/07/04 06:58:40;;;;;;;3.70;1.90;;;27.10;51.50;;;;;;5052615;28;20167;-10
2022/07/04 07:01:08;;;;;;;3.83;2.10;;;27.20;51.50;;;;;;5052541;28;20207;-11
2022/07/04 07:03:33;;;;;;;3.73;2.00;;;27.30;51.50;;;;;;5053523;28;20183;-11
2022/07/04 07:05:59;;;;;;;4.13;1.87;;;27.40;51.30;;;;;;5070907;28;20252;-11
2022/07/04 07:08:25;;;;;;;5.60;1.80;;;27.60;51.50;;;;;;5070593;28;20175;-11
2022/07/04 07:10:51;;;;;;;2.47;1.80;;;27.70;51.00;;;;;;5070277;28;20236;-11
2022/07/04 07:13:16;;;;;;;1.77;1.57;;;27.90;51.20;;;;;;5071327;28;20183;-11
2022/07/04 07:15:42;;;;;;;6.77;2.30;;;28.30;50.90;;;;;;5053081;28;20526;-11
2022/07/04 07:18:08;;;;;;;4.03;1.80;;;28.80;50.30;;;;;;5053077;28;20176;-11
2022/07/04 07:20:34;;;;;;;3.80;1.70;;;29.30;49.90;;;;;;5052453;28;20182;-11
2022/07/04 07:23:04;;;;;;;5.20;1.97;;;29.80;49.30;;;;;;5051399;28;20285;-11
2022/07/04 07:25:30;;;;;;;4.93;1.90;;;30.40;48.50;;;;;;5050583;28;20171;-11
2022/07/04 07:27:57;;;;;;;2.97;1.80;;;30.70;47.80;;;;;;5069145;28;20172;-11
2022/07/04 07:30:26;;;;;;;4.47;1.93;;;31.00;47.40;;;;;;5070148;28;20274;-11
2022/07/04 07:32:52;;;;;;;3.17;1.90;;;31.20;47.30;;;;;;5052796;28;20422;-11
2022/07/04 07:35:18;;;;;;;3.57;1.80;;;31.40;47.00;;;;;;5071108;28;20449;-11
2022/07/04 07:37:43;;;;;;;2.75;2.10;;;31.60;46.60;;;;;;5070817;28;20612;-11
2022/07/04 07:40:09;;;;;;;5.33;1.83;;;31.80;46.40;;;;;;5070329;28;20298;-11
2022/07/04 07:42:35;;;;;;;4.10;2.07;;;32.00;46.10;;;;;;5053161;28;20320;-11
2022/07/04 07:45:01;;;;;;;5.43;2.20;;;32.30;45.80;;;;;;5051277;28;20179;-10
2022/07/04 07:47:28;;;;;;;4.60;1.80;;;32.50;45.70;;;;;;5070928;28;20182;-11
2022/07/04 07:49:56;;;;;;;3.92;1.85;;;32.70;45.30;;;;;;5072266;28;20251;-11
2022/07/04 07:52:22;;;;;;;4.50;2.13;;;33.00;45.00;;;;;;5069420;28;20250;-11
2022/07/04 07:54:48;;;;;;;2.72;1.90;;;32.90;44.90;;;;;;5051862;28;20781;-11
2022/07/04 07:57:14;;;;;;;3.17;1.95;;;33.10;44.90;;;;;;5070512;28;20195;-11
2022/07/04 07:59:40;;;;;;;2.15;1.80;;;33.20;44.70;;;;;;5051056;28;20178;-11
2022/07/04 08:02:07;;;;;;;3.38;2.00;;;33.30;44.60;;;;;;5069438;28;20240;-11
2022/07/04 08:04:35;;;;;;;4.85;1.80;;;33.50;44.40;;;;;;5074729;28;20175;-11
2022/07/04 08:07:10;;;;;;;3.13;1.75;;;33.50;44.20;;;;;;5057729;28;20176;-11
2022/07/04 08:09:37;;;;;;;3.58;1.70;;;33.50;44.10;;;;;;5058198;28;20167;-11
2022/07/04 08:12:04;;;;;;;3.08;2.08;;;33.60;44.00;;;;;;5075652;28;20220;-11
2022/07/04 08:14:31;;;;;;;2.25;1.63;;;33.80;43.90;;;;;;5075183;28;20606;-11
2022/07/04 08:16:58;;;;;;;2.72;2.10;;;33.70;43.80;;;;;;5070953;28;20227;-11
2022/07/04 08:19:25;;;;;;;2.45;1.75;;;33.80;43.80;;;;;;5070014;28;20164;-11
2022/07/04 08:21:53;;;;;;;3.95;1.80;;;33.70;43.70;;;;;;5052542;28;20167;-11
2022/07/04 08:24:19;;;;;;;3.50;1.88;;;33.70;43.80;;;;;;5051573;28;20225;-11
2022/07/04 08:26:45;;;;;;;2.78;1.75;;;33.60;43.90;;;;;;5068893;28;20191;-11
2022/07/04 08:29:17;;;;;;;2.60;1.67;;;33.70;43.90;;;;;;5070894;28;20172;-11
2022/07/04 08:31:42;;;;;;;2.00;1.80;;;33.80;43.70;;;;;;5069836;28;20168;-11
2022/07/04 08:34:08;;;;;;;3.05;2.05;;;33.80;43.80;;;;;;5068278;28;20245;-11
2022/07/04 08:36:34;;;;;;;2.55;1.67;;;34.00;43.70;;;;;;5069129;28;20199;-11
2022/07/04 08:39:00;;;;;;;1.85;1.65;;;34.10;43.50;;;;;;5050490;28;20264;-11
2022/07/04 08:41:28;;;;;;;3.17;1.90;;;34.20;43.40;;;;;;5066475;28;20171;-11
2022/07/04 08:43:56;;;;;;;3.13;1.85;;;34.10;43.40;;;;;;5052336;28;20261;-11
2022/07/04 08:46:27;;;;;;;3.67;1.80;;;34.10;43.50;;;;;;5069278;28;20197;-11
2022/07/04 08:48:55;;;;;;;2.30;1.65;;;34.10;43.40;;;;;;5051515;28;20419;-11
2022/07/04 08:51:37;;;;;;;2.22;1.90;;;34.00;43.30;;;;;;5069051;28;20266;-11
2022/07/04 08:58:25;;;;;;;2.58;1.80;;;33.80;43.40;;;;;;5050453;28;20183;-11
2022/07/04 08:59:36;;;;;;;3.35;1.67;;;33.40;43.70;;;;;;5068794;28;20233;-11
2022/07/04 09:02:03;;;;;;;2.53;1.80;;;32.90;44.00;;;;;;5067114;28;20196;-11
2022/07/04 09:04:29;;;;;;;2.00;1.77;;;32.60;44.20;;;;;;5067817;28;20167;-11
2022/07/04 09:06:56;;;;;;;3.05;1.85;;;32.20;44.50;;;;;;5050907;28;20179;-11
2022/07/04 09:09:28;;;;;;;1.60;1.50;;;31.90;44.80;;;;;;5050515;28;20182;-12
2022/07/04 09:11:54;;;;;;;2.05;1.80;;;31.50;45.20;;;;;;5050961;28;20435;-11
2022/07/04 09:14:20;;;;;;;2.10;1.52;;;31.30;45.30;;;;;;5069736;28;20239;-11
2022/07/04 09:16:48;;;;;;;2.25;1.50;;;31.20;45.40;;;;;;5069451;28;20299;-11
2022/07/04 09:19:21;;;;;;;1.65;1.45;;;31.10;45.50;;;;;;5072473;28;20159;-11
2022/07/04 09:21:49;;;;;;;1.73;1.40;;;31.00;45.60;;;;;;5054992;28;20168;-11
2022/07/04 09:24:15;;;;;;;2.47;1.63;;;30.80;45.70;;;;;;5072305;28;20559;-11
2022/07/04 09:26:44;;;;;;;1.55;1.45;;;30.80;45.80;;;;;;5072476;28;20171;-11
2022/07/04 09:29:10;;;;;;;2.75;1.63;;;30.70;45.90;;;;;;5072404;28;20171;-11
2022/07/04 09:31:37;;;;;;;3.00;1.52;;;30.60;46.00;;;;;;5070978;28;20233;-11
2022/07/04 09:34:05;;;;;;;1.48;1.38;;;30.60;46.10;;;;;;5045117;28;20180;-11
2022/07/04 09:36:40;;;;;;;2.13;1.40;;;30.50;46.10;;;;;;5067248;28;20618;-11
2022/07/04 09:39:20;;;;;;;2.17;1.50;;;30.50;46.10;;;;;;5045080;28;20186;-11
2022/07/04 09:42:03;;;;;;;2.70;1.60;;;30.50;46.20;;;;;;5052365;28;20185;-11
2022/07/04 09:44:43;;;;;;;1.60;1.30;;;30.50;46.30;;;;;;5059842;28;20593;-11
2022/07/04 09:47:33;;;;;;;1.77;1.40;;;30.50;46.30;;;;;;5075520;28;20171;-11
2022/07/04 09:50:12;;;;;;;2.00;1.50;;;30.50;46.50;;;;;;5051133;28;20445;-11
2022/07/04 09:52:50;;;;;;;1.42;1.33;;;30.60;46.30;;;;;;5065566;28;20172;-11
2022/07/04 09:55:23;;;;;;;2.65;1.55;;;30.60;46.30;;;;;;5050225;28;20176;-11
2022/07/04 09:57:49;;;;;;;1.80;1.40;;;30.50;46.40;;;;;;5033666;28;20203;-11
2022/07/04 10:00:42;;;;;;;2.90;1.50;;;30.50;46.40;;;;;;5033089;28;20214;-11
2022/07/04 10:03:27;;;;;;;1.55;1.40;;;30.50;46.40;;;;;;5033047;28;20215;-11
2022/07/04 10:06:17;;;;;;;1.70;1.60;;;30.40;46.40;;;;;;5049333;28;20191;-11
2022/07/04 10:08:44;;;;;;;1.98;1.50;;;30.50;46.40;;;;;;5050567;28;20168;-11
2022/07/04 10:11:11;;;;;;;1.67;1.35;;;30.50;46.30;;;;;;5066091;28;20650;-11
2022/07/04 10:13:38;;;;;;;3.58;1.70;;;30.60;46.30;;;;;;5051594;28;20737;-11
2022/07/04 10:16:04;;;;;;;2.88;1.45;;;30.60;46.30;;;;;;5050102;28;20300;-11
2022/07/04 10:18:29;;;;;;;2.17;1.48;;;30.50;46.40;;;;;;5042848;28;20292;-11
2022/07/04 10:20:57;;;;;;;2.25;1.40;;;30.40;46.50;;;;;;5059803;28;20172;-11
2022/07/04 10:23:30;;;;;;;2.60;1.48;;;30.30;46.50;;;;;;5077130;28;20245;-11
2022/07/04 10:25:56;;;;;;;3.80;1.60;;;30.40;46.40;;;;;;5052824;28;20286;-11
2022/07/04 10:28:24;;;;;;;2.38;1.67;;;30.40;46.40;;;;;;5068695;28;20628;-11
2022/07/04 10:30:55;;;;;;;2.50;1.50;;;30.40;46.20;;;;;;5052302;28;20179;-11
2022/07/04 10:33:26;;;;;;;1.77;1.23;;;30.40;46.40;;;;;;5067108;28;20191;-11
2022/07/04 10:36:14;;;;;;;2.22;1.40;;;30.40;46.40;;;;;;5049659;28;20229;-11
2022/07/04 10:38:54;;;;;;;1.90;1.35;;;30.20;46.50;;;;;;5060417;28;20180;-11
2022/07/04 10:41:23;;;;;;;1.95;1.40;;;30.20;46.60;;;;;;5050950;28;20180;-11
2022/07/04 10:44:16;;;;;;;2.08;1.42;;;30.20;46.50;;;;;;5059841;28;20176;-11
2022/07/04 10:46:56;;;;;;;3.47;1.65;;;30.20;46.50;;;;;;5056262;28;20182;-11
2022/07/04 10:49:25;;;;;;;1.92;1.40;;;30.30;46.30;;;;;;5050042;28;20164;-11
2022/07/04 10:52:09;;;;;;;2.75;1.45;;;30.30;46.00;;;;;;5049511;28;20535;-11
2022/07/04 10:54:38;;;;;;;2.10;1.40;;;30.40;46.30;;;;;;5049017;28;20728;-11
2022/07/04 10:57:21;;;;;;;2.58;1.55;;;30.40;46.20;;;;;;5046675;28;20268;-11
2022/07/04 10:59:57;;;;;;;2.20;1.50;;;30.40;46.00;;;;;;5048429;28;20192;-11
2022/07/04 11:02:38;;;;;;;3.50;1.50;;;30.40;46.00;;;;;;5049867;28;20463;-11
2022/07/04 11:05:14;;;;;;;8.52;1.70;;;30.30;45.90;;;;;;5048259;28;20246;-11
2022/07/04 11:07:40;;;;;;;2.58;1.52;;;30.40;45.80;;;;;;5048657;28;20261;-11
2022/07/04 11:10:21;;;;;;;2.55;1.27;;;30.30;45.80;;;;;;5049080;28;20402;-11
2022/07/04 11:12:53;;;;;;;4.13;1.60;;;30.30;46.20;;;;;;5049737;28;20228;-11
2022/07/04 11:15:28;;;;;;;4.30;1.63;;;30.30;45.80;;;;;;5049318;28;20192;-11
2022/07/04 11:17:58;;;;;;;4.63;1.50;;;30.30;45.80;;;;;;5030590;28;20339;-11
2022/07/04 11:20:26;;;;;;;4.72;1.60;;;30.30;44.90;;;;;;5048636;28;20305;-11
2022/07/04 11:22:52;;;;;;;2.22;1.60;;;30.30;45.70;;;;;;5032307;28;20423;-11
2022/07/04 11:25:18;;;;;;;3.00;1.58;;;30.30;45.70;;;;;;5047906;28;20170;-11
2022/07/04 11:27:44;;;;;;;2.97;1.50;;;30.30;45.60;;;;;;5048044;28;20168;-11
2022/07/04 11:30:11;;;;;;;4.45;1.70;;;30.30;45.70;;;;;;5048482;28;20573;-11
2022/07/04 11:32:38;;;;;;;2.75;1.40;;;30.30;45.70;;;;;;5045996;28;20195;-11
2022/07/04 11:35:06;;;;;;;2.47;1.30;;;30.30;45.60;;;;;;5046198;28;20550;-11
2022/07/04 11:37:32;;;;;;;2.78;1.50;;;30.30;42.20;;;;;;5069997;28;20226;-11
2022/07/04 11:45:51;;;;;;;2.97;1.40;;;30.20;44.20;;;;;;5069254;28;20170;-11
2022/07/04 11:48:21;;;;;;;3.78;1.25;;;30.30;44.80;;;;;;5051407;28;20434;-11
2022/07/04 11:50:47;;;;;;;1.75;1.35;;;30.30;45.10;;;;;;5050912;28;20419;-11
2022/07/04 11:53:13;;;;;;;2.42;1.40;;;30.30;45.30;;;;;;5065469;28;20183;-11
2022/07/04 11:55:39;;;;;;;1.42;1.30;;;30.30;44.80;;;;;;5066841;28;20168;-11
2022/07/04 11:58:04;;;;;;;1.42;1.27;;;30.30;44.30;;;;;;5068224;28;20190;-11
2022/07/04 12:00:31;;;;;;;3.05;1.55;;;30.30;45.20;;;;;;5050816;28;20168;-11
2022/07/04 12:02:59;;;;;;;1.80;1.60;;;30.30;44.70;;;;;;5067819;28;20409;-11
2022/07/04 12:05:25;;;;;;;2.17;1.50;;;30.40;44.30;;;;;;5067452;28;20500;-11
2022/07/04 12:07:53;;;;;;;3.85;1.35;;;30.30;44.40;;;;;;5069973;28;20171;-11
2022/07/04 12:10:27;;;;;;;2.10;1.50;;;30.20;42.40;;;;;;5074106;28;20179;-11
2022/07/04 12:13:09;;;;;;;2.35;1.67;;;30.20;42.80;;;;;;5073953;28;20171;-11
2022/07/04 12:15:46;;;;;;;7.70;2.00;;;30.20;44.40;;;;;;5057256;28;20176;-11
2022/07/04 12:18:33;;;;;;;4.20;1.65;;;30.20;43.00;;;;;;5074581;28;20178;-11
2022/07/04 12:21:18;;;;;;;1.98;1.42;;;30.10;42.40;;;;;;5069155;28;20190;-11
2022/07/04 12:23:54;;;;;;;1.90;1.40;;;30.20;44.10;;;;;;5074855;28;20575;-11
2022/07/04 12:26:19;;;;;;;1.85;1.40;;;30.20;43.10;;;;;;5056379;28;20465;-11
2022/07/04 12:28:46;;;;;;;3.42;1.60;;;30.10;42.60;;;;;;5057105;28;20557;-11
2022/07/04 12:31:11;;;;;;;2.47;1.60;;;30.00;42.10;;;;;;5074279;28;20262;-11
2022/07/04 12:33:37;;;;;;;3.38;1.50;;;30.00;43.20;;;;;;5057847;28;20289;-11
2022/07/04 12:36:05;;;;;;;4.05;1.70;;;30.00;44.90;;;;;;5073232;28;20715;-11
2022/07/04 12:38:37;;;;;;;4.43;1.63;;;30.10;44.60;;;;;;5074647;28;20556;-11
2022/07/04 12:41:07;;;;;;;2.88;1.75;;;30.00;43.50;;;;;;5074595;28;20401;-11
2022/07/04 12:43:42;;;;;;;12.75;2.13;;;30.10;43.80;;;;;;5057372;28;20664;-11
2022/07/04 12:46:14;;;;;;;4.25;1.55;;;30.00;43.50;;;;;;5074237;28;20551;-11
2022/07/04 12:48:41;;;;;;;2.50;1.42;;;30.00;44.10;;;;;;5057616;28;20262;-11
2022/07/04 12:51:23;;;;;;;3.08;1.60;;;30.10;44.70;;;;;;5075109;28;20167;-11
2022/07/04 12:53:50;;;;;;;2.00;1.50;;;30.10;43.70;;;;;;5078217;28;20432;-11
2022/07/04 12:56:29;;;;;;;2.30;1.50;;;30.10;43.50;;;;;;5076872;28;20611;-11
2022/07/04 12:58:57;;;;;;;2.00;1.48;;;30.10;42.70;;;;;;5060685;28;20168;-11
2022/07/04 13:01:22;;;;;;;4.55;1.60;;;30.10;43.10;;;;;;5068085;28;20188;-11
2022/07/04 13:03:48;;;;;;;2.30;1.50;;;30.00;42.20;;;;;;5057992;28;20182;-11
2022/07/04 13:06:14;;;;;;;1.77;1.48;;;30.00;42.20;;;;;;5058340;28;20178;-11
2022/07/04 13:08:40;;;;;;;2.67;1.40;;;29.90;42.30;;;;;;5057973;28;20164;-11
2022/07/04 13:13:50;;;;;;;2.00;1.40;;;29.60;43.10;;;;;;5077878;28;20507;-11